G.commander — DSQR5 — position and weather

sailwx.info

Track history (hours):
 
Tides and Currents Weather Stations Pressure Air Temp Water Temp Dewpoint Dewpoint Depression Visibility Wind Speed Wind Dir Waves Ship Positions

G.commander

Last reported at 2018-Apr-22 14:30 UTC. Time now 2018-Apr-25 12:45 UTC.
Position N 23°19' E 122°08'.

Length 230 m; draft 11 m.

Type: Tanker. MMSI: 441681000.

Date/timePositionNaut miles runAvg speedWind from/ knotsBaromVisibWave heightAir tempDewpointWater temp
2018-Apr-22 14:30N 23°19' E 122°08'  
2018-Apr-17 10:06N 01°15' E 104°07'213.1
2018-Apr-17 09:56N 01°15' E 104°05'613.5
2018-Apr-17 09:30N 01°14' E 103°59'611.9
2018-Apr-17 09:00N 01°12' E 103°53'611.4
2018-Apr-17 08:30N 01°10' E 103°48'711.3
2018-Apr-17 07:55N 01°05' E 103°43'511.4
2018-Apr-17 07:30N 01°03' E 103°39'611.1
2018-Apr-17 06:59N 01°05' E 103°34'5 9.4
2018-Apr-17 06:30N 01°10' E 103°34'510.3
2018-Apr-17 06:00N 01°11' E 103°39'4 7.5
2018-Apr-17 05:30N 01°09' E 103°43'1 1.4
2018-Apr-17 04:54N 01°10' E 103°43'0 0.0
2018-Apr-17 04:30N 01°10' E 103°43'0 0.1
2018-Apr-17 03:51N 01°10' E 103°43'0 0.0
2018-Apr-17 03:27N 01°10' E 103°43'0 0.1
2018-Apr-17 02:57N 01°10' E 103°43'0 0.4
2018-Apr-17 02:30N 01°10' E 103°43'0 0.2
2018-Apr-17 01:57N 01°10' E 103°43'0 0.0
2018-Apr-17 01:30N 01°10' E 103°43'0 0.0
2018-Apr-17 00:57N 01°10' E 103°43'0 0.2
2018-Apr-17 00:30N 01°10' E 103°43'0 0.4
2018-Apr-16 23:58N 01°10' E 103°43'2 4.2
2018-Apr-16 23:30N 01°10' E 103°42'5 9.1
2018-Apr-16 23:00N 01°12' E 103°37'2 4.4
2018-Apr-16 22:31N 01°12' E 103°35'4 8.1
2018-Apr-16 22:00N 01°11' E 103°31'4 6.9
2018-Apr-16 21:27N 01°10' E 103°27'  
Track history (hours):
 
Tides and Currents Weather Stations Pressure Air Temp Water Temp Dewpoint Dewpoint Depression Visibility Wind Speed Wind Dir Waves Ship Positions

G.commander

Last reported at 2018-Apr-22 14:30 UTC. Time now 2018-Apr-25 12:45 UTC.
Position N 23°19' E 122°08'.

Length 230 m; draft 11 m.

Type: Tanker. MMSI: 441681000.

Date/timePositionNaut miles runAvg speedWind from/ knotsBaromVisibWave heightAir tempDewpointWater temp
2018-Apr-22 14:30N 23°19' E 122°08'  
2018-Apr-17 10:06N 01°15' E 104°07'213.1
2018-Apr-17 09:56N 01°15' E 104°05'613.5
2018-Apr-17 09:30N 01°14' E 103°59'611.9
2018-Apr-17 09:00N 01°12' E 103°53'611.4
2018-Apr-17 08:30N 01°10' E 103°48'711.3
2018-Apr-17 07:55N 01°05' E 103°43'511.4
2018-Apr-17 07:30N 01°03' E 103°39'611.1
2018-Apr-17 06:59N 01°05' E 103°34'5 9.4
2018-Apr-17 06:30N 01°10' E 103°34'510.3
2018-Apr-17 06:00N 01°11' E 103°39'4 7.5
2018-Apr-17 05:30N 01°09' E 103°43'1 1.4
2018-Apr-17 04:54N 01°10' E 103°43'0 0.0
2018-Apr-17 04:30N 01°10' E 103°43'0 0.1
2018-Apr-17 03:51N 01°10' E 103°43'0 0.0
2018-Apr-17 03:27N 01°10' E 103°43'0 0.1
2018-Apr-17 02:57N 01°10' E 103°43'0 0.4
2018-Apr-17 02:30N 01°10' E 103°43'0 0.2
2018-Apr-17 01:57N 01°10' E 103°43'0 0.0
2018-Apr-17 01:30N 01°10' E 103°43'0 0.0
2018-Apr-17 00:57N 01°10' E 103°43'0 0.2
2018-Apr-17 00:30N 01°10' E 103°43'0 0.4
2018-Apr-16 23:58N 01°10' E 103°43'2 4.2
2018-Apr-16 23:30N 01°10' E 103°42'5 9.1
2018-Apr-16 23:00N 01°12' E 103°37'2 4.4
2018-Apr-16 22:31N 01°12' E 103°35'4 8.1
2018-Apr-16 22:00N 01°11' E 103°31'4 6.9
2018-Apr-16 21:27N 01°10' E 103°27'  

Dump ship's entire track history